Time;durP1;ratioP1;P1;durP2;ratioP2;P2;SDS_P1;SDS_P2;PMS_P1;PMS_P2;Temp;Humidity;BMP_temperature;BMP_pressure;BME280_temperature;BME280_humidity;BME280_pressure;Samples;Min_cycle;Max_cycle;Signal;HPM_P1;HPM_P2
2022/10/11 00:00:35;;;;;;;6.32;1.50;;;;;;;16.01;55.02;101634.13;5028019;28;98524;-65
2022/10/11 00:03:01;;;;;;;13.55;2.00;;;;;;;15.97;55.34;101641.38;5023928;27;102407;-65
2022/10/11 00:05:29;;;;;;;8.82;1.50;;;;;;;15.93;55.45;101648.66;5028591;27;99522;-66
2022/10/11 00:07:56;;;;;;;11.25;2.30;;;;;;;16.01;55.03;101658.13;5029487;27;99303;-65
2022/10/11 00:10:23;;;;;;;6.20;1.80;;;;;;;16.02;54.99;101654.50;5029022;27;97227;-65
2022/10/11 00:12:51;;;;;;;7.13;1.73;;;;;;;16.01;54.85;101656.34;5025855;27;97863;-65
2022/10/11 00:15:20;;;;;;;5.72;1.40;;;;;;;15.89;55.13;101663.03;5024370;27;98638;-64
2022/10/11 00:17:47;;;;;;;8.40;1.83;;;;;;;15.82;55.44;101672.22;5024111;27;96897;-66
2022/10/11 00:20:13;;;;;;;7.05;1.63;;;;;;;15.65;55.79;101673.88;5025798;27;96869;-66
2022/10/11 00:22:42;;;;;;;5.75;1.48;;;;;;;15.68;55.53;101679.09;5027708;27;98950;-65
2022/10/11 00:25:10;;;;;;;6.93;1.58;;;;;;;15.70;55.53;101683.41;5028495;27;97827;-65
2022/10/11 00:27:37;;;;;;;9.90;1.75;;;;;;;15.56;56.03;101690.25;5029935;27;96746;-65
2022/10/11 00:30:05;;;;;;;4.32;1.30;;;;;;;15.64;55.73;101690.78;5025879;27;96802;-66
2022/10/11 00:32:32;;;;;;;15.93;2.42;;;;;;;15.51;55.71;101690.41;5025434;27;99061;-65
2022/10/11 00:35:03;;;;;;;11.95;2.15;;;;;;;15.72;55.00;101700.22;5027607;27;98767;-65
2022/10/11 00:37:30;;;;;;;9.25;1.58;;;;;;;15.48;55.58;101703.84;5026653;27;97409;-64
2022/10/11 00:39:57;;;;;;;6.95;1.48;;;;;;;15.60;54.99;101699.84;5018847;28;99117;-65
2022/10/11 00:42:24;;;;;;;13.93;1.58;;;;;;;15.56;55.16;101703.59;5022516;27;99057;-65
2022/10/11 00:44:51;;;;;;;11.23;1.65;;;;;;;15.48;55.52;101718.03;5026328;27;98825;-65
2022/10/11 00:47:20;;;;;;;5.43;1.20;;;;;;;15.48;55.51;101714.50;5021993;28;96811;-65
2022/10/11 00:49:49;;;;;;;9.40;1.38;;;;;;;15.55;55.22;101721.34;5025799;28;97937;-65
2022/10/11 00:52:22;;;;;;;6.65;1.23;;;;;;;15.57;55.11;101719.47;5024544;28;99223;-65
2022/10/11 00:54:49;;;;;;;7.47;1.80;;;;;;;15.51;55.40;101728.56;5027121;28;100935;-65
2022/10/11 00:57:21;;;;;;;9.90;1.63;;;;;;;15.44;55.45;101721.75;5026207;27;99147;-64
2022/10/11 00:59:50;;;;;;;5.82;1.40;;;;;;;15.21;56.14;101727.13;5021041;27;96839;-65
2022/10/11 01:02:18;;;;;;;8.23;1.33;;;;;;;15.18;56.15;101729.88;5025508;27;99337;-65
2022/10/11 01:04:45;;;;;;;10.30;1.40;;;;;;;14.93;57.10;101729.97;5027907;27;99119;-65
2022/10/11 01:07:11;;;;;;;9.25;1.40;;;;;;;14.97;57.20;101734.25;5027908;28;97662;-65
2022/10/11 01:09:38;;;;;;;9.52;1.30;;;;;;;14.94;57.18;101739.69;5027328;28;96858;-65
2022/10/11 01:12:12;;;;;;;11.40;1.50;;;;;;;15.13;56.74;101735.41;5025514;28;99881;-65
2022/10/11 01:15:04;;;;;;;11.45;1.77;;;;;;;15.12;56.63;101744.31;5026457;27;99014;-65
2022/10/11 01:17:39;;;;;;;15.25;1.92;;;;;;;15.11;56.62;101741.69;5018166;28;97333;-65
2022/10/11 01:20:44;;;;;;;17.52;1.73;;;;;;;15.13;56.82;101758.50;5025197;27;98356;-65
2022/10/11 01:23:47;;;;;;;12.40;1.42;;;;;;;14.99;57.31;101761.69;4966068;28;99596;-65
2022/10/11 01:26:35;;;;;;;10.48;1.65;;;;;;;14.88;57.65;101763.00;4965662;28;98792;-64
2022/10/11 01:29:12;;;;;;;15.48;1.52;;;;;;;14.51;59.06;101768.78;4974809;27;97207;-64
2022/10/11 01:31:47;;;;;;;17.02;2.17;;;;;;;14.47;59.40;101768.03;5023436;27;97231;-64
2022/10/11 01:34:21;;;;;;;16.55;1.60;;;;;;;14.70;58.74;101772.53;5029636;27;98978;-64
2022/10/11 01:36:54;;;;;;;11.73;2.33;;;;;;;14.68;58.94;101767.28;5025895;27;99090;-64
2022/10/11 01:39:28;;;;;;;9.02;1.95;;;;;;;14.77;58.58;101770.53;5023326;27;97100;-64
2022/10/11 01:41:57;;;;;;;16.10;2.08;;;;;;;14.85;58.44;101782.59;5026898;27;96763;-64
2022/10/11 01:44:25;;;;;;;13.95;1.77;;;;;;;14.85;58.30;101773.75;5023794;27;100887;-64
2022/10/11 01:46:53;;;;;;;12.73;1.52;;;;;;;14.79;58.62;101779.31;5021651;27;99011;-64
2022/10/11 01:49:19;;;;;;;10.43;2.83;;;;;;;14.81;58.70;101780.13;5021543;27;96860;-64
2022/10/11 01:51:49;;;;;;;13.75;1.65;;;;;;;14.65;59.24;101782.47;5028275;27;98740;-65
2022/10/11 01:54:39;;;;;;;15.30;2.13;;;;;;;14.71;59.18;101780.44;5025511;27;99312;-65
2022/10/11 01:57:27;;;;;;;12.40;1.85;;;;;;;14.92;58.60;101784.13;5023629;27;98962;-65
2022/10/11 02:00:02;;;;;;;14.20;1.90;;;;;;;14.84;58.56;101787.97;5022553;27;97127;-65
2022/10/11 02:02:42;;;;;;;16.90;2.13;;;;;;;14.77;59.01;101793.53;5022705;27;96882;-66
2022/10/11 02:05:16;;;;;;;13.88;1.83;;;;;;;14.77;58.63;101791.81;5025988;28;99072;-65
2022/10/11 02:07:48;;;;;;;17.20;2.50;;;;;;;14.46;60.07;101800.88;5027826;28;99480;-65
2022/10/11 02:10:20;;;;;;;13.15;2.17;;;;;;;14.41;59.79;101802.81;5024938;28;96803;-66
2022/10/11 02:12:55;;;;;;;14.93;2.17;;;;;;;14.54;59.52;101798.81;5021552;28;96988;-65
2022/10/11 02:15:24;;;;;;;15.70;1.85;;;;;;;14.66;59.15;101802.81;5023893;27;99616;-65
2022/10/11 02:17:56;;;;;;;20.55;2.10;;;;;;;14.74;58.86;101812.28;5026311;27;98657;-65
2022/10/11 02:20:26;;;;;;;15.02;2.10;;;;;;;14.72;58.66;101814.13;5027189;28;96687;-65
2022/10/11 02:23:03;;;;;;;20.42;3.05;;;;;;;14.67;58.88;101809.88;5029668;28;98387;-64
2022/10/11 02:25:34;;;;;;;8.80;1.48;;;;;;;14.70;58.72;101818.63;5021559;28;99101;-64
2022/10/11 02:28:04;;;;;;;13.85;2.17;;;;;;;14.58;58.74;101813.72;5027651;28;98850;-64
2022/10/11 02:30:32;;;;;;;13.93;1.88;;;;;;;14.54;58.88;101811.25;5022928;28;98124;-64
2022/10/11 02:33:05;;;;;;;11.95;1.48;;;;;;;14.63;58.40;101806.47;5027193;28;96897;-64
2022/10/11 02:35:36;;;;;;;13.65;1.65;;;;;;;14.70;58.13;101810.63;5024934;28;98994;-65
2022/10/11 02:38:09;;;;;;;14.55;2.33;;;;;;;14.83;57.85;101820.88;5028639;28;98895;-65
2022/10/11 02:40:37;;;;;;;15.82;2.33;;;;;;;14.53;58.52;101813.03;5023531;28;97124;-66
2022/10/11 02:43:07;;;;;;;11.43;1.95;;;;;;;14.67;58.12;101826.72;5029452;27;96761;-65
2022/10/11 02:45:37;;;;;;;14.15;2.17;;;;;;;14.57;58.22;101821.78;5027762;27;99140;-66
2022/10/11 02:48:07;;;;;;;17.17;2.03;;;;;;;14.45;58.64;101817.75;5025629;27;100043;-66
2022/10/11 02:50:34;;;;;;;19.17;2.25;;;;;;;14.55;58.38;101821.84;5026345;27;98499;-66
2022/10/11 02:53:00;;;;;;;4.97;1.42;;;;;;;14.59;58.15;101826.09;5027259;27;97274;-65
2022/10/11 02:55:26;;;;;;;7.30;1.50;;;;;;;14.58;58.19;101835.00;5021249;28;98131;-64
2022/10/11 02:57:53;;;;;;;13.00;2.20;;;;;;;14.50;58.08;101833.56;5026947;27;97589;-65
2022/10/11 03:00:19;;;;;;;12.85;2.47;;;;;;;14.51;58.30;101828.16;5021524;28;96953;-66
2022/10/11 03:02:46;;;;;;;16.88;2.03;;;;;;;14.32;58.80;101827.88;5023676;27;96942;-66
2022/10/11 03:05:13;;;;;;;16.45;1.38;;;;;;;14.21;59.21;101829.19;5022744;28;99181;-66
2022/10/11 03:07:40;;;;;;;13.55;1.85;;;;;;;14.29;59.45;101843.09;5022862;28;98955;-64
2022/10/11 03:10:07;;;;;;;16.65;2.42;;;;;;;14.47;58.56;101849.59;5026069;27;96789;-65
2022/10/11 03:12:34;;;;;;;12.45;1.63;;;;;;;14.39;58.86;101847.19;5025324;27;96998;-66
2022/10/11 03:15:00;;;;;;;14.57;1.63;;;;;;;14.46;58.66;101850.53;5023638;27;98898;-65
2022/10/11 03:17:27;;;;;;;8.73;1.83;;;;;;;14.42;58.70;101857.75;5024920;28;98929;-65
2022/10/11 03:19:53;;;;;;;17.08;2.10;;;;;;;14.58;58.49;101863.41;5025723;28;96907;-69
2022/10/11 03:22:21;;;;;;;18.33;2.38;;;;;;;14.45;58.70;101862.94;5025502;27;97501;-67
2022/10/11 03:24:47;;;;;;;11.05;2.03;;;;;;;14.33;59.09;101873.97;5024011;28;100966;-66
2022/10/11 03:27:14;;;;;;;12.20;2.03;;;;;;;14.44;58.70;101871.84;5024672;28;99191;-65
2022/10/11 03:29:40;;;;;;;16.52;2.05;;;;;;;14.22;59.68;101874.34;5024288;28;96787;-66
2022/10/11 03:32:06;;;;;;;13.32;1.92;;;;;;;14.16;59.93;101881.63;5027780;27;98957;-67
2022/10/11 03:34:33;;;;;;;14.40;2.78;;;;;;;14.19;59.85;101881.53;5026720;27;99305;-66
2022/10/11 03:36:59;;;;;;;17.10;1.92;;;;;;;14.12;59.98;101882.63;5029410;27;97649;-65
2022/10/11 03:39:27;;;;;;;16.25;1.70;;;;;;;14.21;60.04;101885.88;5026811;27;97047;-66
2022/10/11 03:41:53;;;;;;;11.05;1.88;;;;;;;14.07;60.41;101882.78;5028795;28;96836;-65
2022/10/11 03:44:20;;;;;;;14.95;1.90;;;;;;;14.03;60.86;101890.91;5027604;27;98661;-65
2022/10/11 03:46:46;;;;;;;15.80;2.13;;;;;;;14.12;60.64;101885.28;5026862;27;98983;-66
2022/10/11 03:49:13;;;;;;;8.95;1.95;;;;;;;14.04;61.01;101892.66;5021260;27;97140;-66
2022/10/11 03:51:39;;;;;;;16.85;1.83;;;;;;;14.00;61.08;101891.00;5024866;27;97287;-65
2022/10/11 03:54:05;;;;;;;18.38;2.40;;;;;;;13.90;61.40;101903.72;5027227;27;99029;-65
2022/10/11 03:56:33;;;;;;;17.75;2.25;;;;;;;13.89;61.25;101899.31;5028521;28;98771;-66
2022/10/11 03:59:01;;;;;;;10.35;2.22;;;;;;;14.07;60.97;101905.84;5029056;28;97466;-67
2022/10/11 04:01:27;;;;;;;16.10;2.55;;;;;;;14.03;61.00;101904.22;5026574;27;98788;-66
2022/10/11 04:03:55;;;;;;;10.57;1.83;;;;;;;13.93;61.41;101914.25;5023635;28;99186;-66
2022/10/11 04:06:22;;;;;;;18.30;2.50;;;;;;;14.04;60.91;101908.59;5030226;27;99867;-67
2022/10/11 04:08:48;;;;;;;18.73;2.75;;;;;;;13.96;61.18;101920.34;5028928;28;96846;-67
2022/10/11 04:11:15;;;;;;;14.23;3.03;;;;;;;13.99;61.18;101924.69;5027971;28;96837;-67
2022/10/11 04:13:42;;;;;;;14.95;2.80;;;;;;;14.06;61.07;101917.38;5027768;28;98870;-67
2022/10/11 04:16:09;;;;;;;13.32;2.30;;;;;;;13.71;62.28;101926.44;5030047;28;98811;-66
2022/10/11 04:18:35;;;;;;;20.58;2.38;;;;;;;13.76;62.01;101929.84;5024406;28;98261;-68
2022/10/11 04:21:02;;;;;;;14.80;2.55;;;;;;;13.79;62.12;101927.94;5025834;27;97712;-66
2022/10/11 04:23:30;;;;;;;11.02;2.05;;;;;;;13.86;61.93;101937.47;5028302;28;99067;-66
2022/10/11 04:25:56;;;;;;;19.23;3.13;;;;;;;13.84;61.93;101938.44;5026240;28;99210;-66
2022/10/11 04:28:23;;;;;;;15.00;2.22;;;;;;;14.12;60.82;101939.31;5032149;27;97037;-66
2022/10/11 04:30:52;;;;;;;11.48;2.33;;;;;;;14.06;61.00;101943.97;5028806;27;96935;-66
2022/10/11 04:33:18;;;;;;;16.27;2.88;;;;;;;14.03;61.03;101944.06;5031701;28;98870;-67
2022/10/11 04:35:44;;;;;;;14.23;2.28;;;;;;;14.12;60.95;101941.09;5024140;28;99297;-66
2022/10/11 04:38:11;;;;;;;12.75;2.88;;;;;;;13.98;61.49;101950.38;5031030;27;96775;-66
2022/10/11 04:40:38;;;;;;;21.88;2.58;;;;;;;13.95;61.56;101946.97;5028047;27;96864;-67
2022/10/11 04:43:04;;;;;;;11.30;2.22;;;;;;;13.81;61.90;101958.00;5028916;28;98145;-66
2022/10/11 04:45:31;;;;;;;19.92;2.83;;;;;;;13.98;61.52;101960.13;5030037;28;99166;-66
2022/10/11 04:47:58;;;;;;;16.42;3.25;;;;;;;13.68;62.45;101961.94;5028438;28;96809;-66
2022/10/11 04:50:25;;;;;;;17.80;3.92;;;;;;;13.54;63.37;101959.66;5027099;28;96868;-67
2022/10/11 04:52:52;;;;;;;7.40;2.15;;;;;;;13.56;62.98;101968.47;5026771;27;98472;-65
2022/10/11 04:55:18;;;;;;;13.32;3.03;;;;;;;13.62;62.96;101966.53;5029230;27;98789;-66
2022/10/11 04:57:44;;;;;;;16.23;3.30;;;;;;;13.57;62.88;101972.00;5028462;27;97018;-66
2022/10/11 05:00:12;;;;;;;18.30;3.45;;;;;;;13.53;63.21;101965.00;5027998;28;96768;-65
2022/10/11 05:02:38;;;;;;;20.70;3.85;;;;;;;13.65;62.93;101975.31;5022984;28;98547;-65
2022/10/11 05:05:07;;;;;;;18.02;3.28;;;;;;;13.49;63.44;101974.00;5025570;27;98908;-65
2022/10/11 05:07:34;;;;;;;20.83;4.00;;;;;;;13.47;63.27;101976.69;5029866;28;96970;-65
2022/10/11 05:10:00;;;;;;;15.50;2.65;;;;;;;13.75;62.48;101976.78;5029750;28;97083;-65
2022/10/11 05:12:26;;;;;;;15.45;3.75;;;;;;;13.61;62.99;101981.59;5029762;28;98689;-66
2022/10/11 05:14:53;;;;;;;19.30;3.55;;;;;;;13.78;62.36;101991.78;5023166;28;98775;-65
2022/10/11 05:17:19;;;;;;;14.13;3.75;;;;;;;13.68;62.71;101990.28;5023414;27;96967;-66
2022/10/11 05:19:46;;;;;;;20.88;3.65;;;;;;;13.85;62.24;101988.00;5027871;27;96976;-66
2022/10/11 05:22:13;;;;;;;19.40;4.05;;;;;;;13.73;62.36;101991.00;5025749;28;101435;-66
2022/10/11 05:24:40;;;;;;;14.88;3.58;;;;;;;13.72;62.49;101998.09;5022564;28;97865;-67
2022/10/11 05:27:06;;;;;;;14.98;3.78;;;;;;;13.78;62.36;101997.97;5024286;27;96869;-65
2022/10/11 05:29:33;;;;;;;26.98;3.70;;;;;;;13.57;62.89;102001.22;5026643;27;98199;-67
2022/10/11 05:32:00;;;;;;;24.35;4.60;;;;;;;13.48;63.40;102009.41;5025538;28;101666;-66
2022/10/11 05:34:26;;;;;;;18.73;3.30;;;;;;;13.62;62.93;102012.56;5017125;27;98938;-67
2022/10/11 05:36:55;;;;;;;19.98;3.50;;;;;;;13.62;63.03;102017.88;5024001;28;96914;-66
2022/10/11 05:39:23;;;;;;;11.85;3.28;;;;;;;13.75;62.48;102021.94;5025642;27;96938;-66
2022/10/11 05:41:50;;;;;;;26.10;4.00;;;;;;;13.94;61.80;102019.63;5022471;27;100581;-66
2022/10/11 05:44:17;;;;;;;24.67;3.67;;;;;;;13.84;61.87;102029.66;5026287;27;99292;-65
2022/10/11 05:46:44;;;;;;;16.25;3.22;;;;;;;13.85;61.96;102027.84;5027552;27;96760;-66
2022/10/11 05:49:10;;;;;;;16.15;3.75;;;;;;;13.90;62.15;102028.59;5027187;27;97142;-66
2022/10/11 05:51:37;;;;;;;18.60;3.50;;;;;;;13.88;61.77;102031.28;5026877;27;99267;-66
2022/10/11 05:54:03;;;;;;;18.25;4.03;;;;;;;13.85;61.78;102036.69;5025746;27;98857;-66
2022/10/11 05:56:31;;;;;;;16.83;3.40;;;;;;;13.87;62.01;102034.00;5026378;27;96753;-67
2022/10/11 05:58:57;;;;;;;12.35;3.20;;;;;;;14.04;61.33;102042.38;5018886;27;97420;-66
2022/10/11 06:01:26;;;;;;;15.75;3.85;;;;;;;13.96;61.41;102039.06;5028043;27;98966;-65
2022/10/11 06:03:54;;;;;;;15.98;3.38;;;;;;;13.86;61.71;102048.19;5020787;27;97954;-65
2022/10/11 06:06:33;;;;;;;10.68;3.00;;;;;;;14.03;61.58;102047.72;5028554;27;96908;-66
2022/10/11 06:09:00;;;;;;;19.45;3.78;;;;;;;14.17;60.91;102058.81;5024615;27;96828;-66
2022/10/11 06:11:28;;;;;;;15.45;3.53;;;;;;;14.08;60.94;102053.75;5021717;27;98982;-65
2022/10/11 06:13:57;;;;;;;16.23;3.15;;;;;;;14.32;60.24;102059.22;5021892;27;97647;-66
2022/10/11 06:16:24;;;;;;;13.57;3.22;;;;;;;14.44;60.00;102059.81;5017605;27;97440;-65
2022/10/11 06:18:52;;;;;;;15.15;3.47;;;;;;;14.06;60.86;102058.25;5027062;27;97406;-66
2022/10/11 06:21:19;;;;;;;16.48;3.55;;;;;;;14.16;60.82;102065.06;5019301;27;98989;-66
2022/10/11 06:23:48;;;;;;;16.25;3.53;;;;;;;14.15;60.92;102065.97;5024612;27;98830;-65
2022/10/11 06:26:14;;;;;;;18.13;4.60;;;;;;;14.09;61.04;102067.00;5018125;28;97266;-65
2022/10/11 06:28:41;;;;;;;15.60;3.88;;;;;;;14.09;60.78;102072.31;5019517;27;97271;-65
2022/10/11 06:31:11;;;;;;;24.55;3.92;;;;;;;13.96;61.27;102076.25;5020723;27;100501;-65
2022/10/11 06:33:40;;;;;;;15.23;3.30;;;;;;;13.98;61.49;102081.53;5019457;27;98973;-66
2022/10/11 06:36:09;;;;;;;22.23;3.78;;;;;;;13.82;61.73;102084.63;5018563;27;97168;-66
2022/10/11 06:38:36;;;;;;;11.25;2.85;;;;;;;14.13;61.14;102079.28;5024400;27;96990;-66
2022/10/11 06:41:10;;;;;;;17.80;4.00;;;;;;;14.18;60.90;102092.44;5023113;27;99342;-65
2022/10/11 06:43:36;;;;;;;13.88;3.63;;;;;;;14.24;60.74;102089.63;5019612;27;98737;-65
2022/10/11 06:46:27;;;;;;;22.45;4.60;;;;;;;14.09;60.84;102090.06;5019017;27;98450;-65
2022/10/11 06:48:55;;;;;;;26.67;4.25;;;;;;;13.98;61.29;102096.53;5023195;27;96910;-66
2022/10/11 06:51:22;;;;;;;14.57;4.00;;;;;;;14.17;61.06;102096.91;5026725;28;99655;-66
2022/10/11 06:53:50;;;;;;;14.98;4.13;;;;;;;14.35;60.21;102108.78;5022850;27;99126;-68
2022/10/11 06:56:17;;;;;;;14.65;3.67;;;;;;;14.24;60.09;102105.56;5022912;27;97041;-65
2022/10/11 06:58:44;;;;;;;19.48;3.67;;;;;;;14.27;60.35;102109.00;5024715;27;97878;-66
2022/10/11 07:01:12;;;;;;;17.98;4.20;;;;;;;14.48;59.68;102120.84;5028368;27;98938;-66
2022/10/11 07:03:39;;;;;;;21.23;3.80;;;;;;;14.54;59.55;102117.13;5026782;27;98850;-66
2022/10/11 07:06:09;;;;;;;13.60;3.40;;;;;;;14.35;59.79;102111.44;5026520;27;96886;-66
2022/10/11 07:08:36;;;;;;;29.27;3.90;;;;;;;14.43;59.46;102122.75;5026213;27;98854;-66
2022/10/11 07:11:04;;;;;;;19.75;3.70;;;;;;;14.50;59.37;102126.13;5019435;27;98736;-66
2022/10/11 07:13:31;;;;;;;18.48;3.60;;;;;;;14.82;58.81;102130.44;5022578;27;98845;-65
2022/10/11 07:16:01;;;;;;;24.17;3.97;;;;;;;15.19;57.44;102132.78;5017897;27;97609;-65
2022/10/11 07:18:27;;;;;;;15.43;3.58;;;;;;;15.13;57.22;102134.75;5027612;27;96949;-65
2022/10/11 07:20:53;;;;;;;12.55;3.58;;;;;;;14.74;58.33;102142.19;5024647;27;101335;-67
2022/10/11 07:23:23;;;;;;;21.73;3.70;;;;;;;14.91;58.12;102133.66;5026334;27;99188;-66
2022/10/11 07:25:53;;;;;;;20.95;4.40;;;;;;;15.31;56.87;102151.03;5025350;27;96793;-65
2022/10/11 07:28:19;;;;;;;15.98;3.40;;;;;;;15.28;56.68;102153.81;5026624;27;96910;-66
2022/10/11 07:30:46;;;;;;;19.65;5.00;;;;;;;14.48;58.97;102154.53;5024428;27;99254;-65
2022/10/11 07:33:12;;;;;;;21.60;3.80;;;;;;;14.92;57.91;102161.16;5027331;27;100824;-64
2022/10/11 07:35:39;;;;;;;11.75;3.00;;;;;;;14.00;60.74;102152.31;5024179;27;96811;-65
2022/10/11 07:38:07;;;;;;;18.85;3.42;;;;;;;14.32;59.84;102159.38;5025177;27;97706;-65
2022/10/11 07:40:44;;;;;;;15.77;3.45;;;;;;;14.58;59.16;102158.66;5025456;27;99308;-67
2022/10/11 07:43:10;;;;;;;14.68;3.38;;;;;;;14.64;58.53;102162.00;5025364;27;98998;-65
2022/10/11 07:45:37;;;;;;;11.80;3.03;;;;;;;14.70;58.55;102172.44;5025319;27;96940;-65
2022/10/11 07:48:05;;;;;;;15.63;3.80;;;;;;;14.96;57.39;102179.66;5023749;27;97290;-66
2022/10/11 07:50:32;;;;;;;19.05;3.17;;;;;;;14.77;57.98;102174.97;5023878;27;98957;-65
2022/10/11 07:53:00;;;;;;;19.67;4.18;;;;;;;14.82;58.17;102175.69;5027656;27;98804;-65
2022/10/11 07:55:28;;;;;;;12.25;3.28;;;;;;;14.65;58.47;102178.84;5020577;27;97934;-65
2022/10/11 07:57:57;;;;;;;18.85;4.25;;;;;;;15.03;57.59;102180.34;5023923;28;96858;-65
2022/10/11 08:00:23;;;;;;;18.05;3.65;;;;;;;15.48;56.55;102178.00;5015866;27;99878;-66
2022/10/11 08:02:50;;;;;;;18.05;3.75;;;;;;;15.58;55.45;102181.25;5005492;27;98946;-66
2022/10/11 08:05:17;;;;;;;13.48;3.28;;;;;;;15.56;55.48;102177.78;5014575;27;98557;-65
2022/10/11 08:07:44;;;;;;;16.15;3.30;;;;;;;15.20;56.39;102187.78;5015732;27;97546;-67
2022/10/11 08:10:13;;;;;;;15.73;3.00;;;;;;;15.53;55.93;102187.59;5019305;27;98997;-67
2022/10/11 08:12:40;;;;;;;16.00;3.13;;;;;;;15.38;55.87;102181.88;5018598;27;100059;-66
2022/10/11 08:15:08;;;;;;;21.63;4.47;;;;;;;15.51;55.89;102184.06;5016901;27;98969;-66
2022/10/11 08:17:38;;;;;;;21.42;4.70;;;;;;;15.56;55.58;102181.28;5025522;27;96996;-66
2022/10/11 08:20:05;;;;;;;16.48;3.30;;;;;;;15.05;56.62;102186.47;5018896;27;99561;-65
2022/10/11 08:22:32;;;;;;;10.80;2.60;;;;;;;15.38;56.14;102185.41;5025289;27;98916;-65
2022/10/11 08:24:59;;;;;;;16.70;3.20;;;;;;;16.07;54.81;102189.31;5020285;27;98061;-65
2022/10/11 08:27:25;;;;;;;18.75;3.20;;;;;;;16.08;54.20;102188.34;5028823;27;97584;-66
2022/10/11 08:29:52;;;;;;;15.05;2.90;;;;;;;16.45;53.08;102197.69;5019196;27;99286;-65
2022/10/11 08:32:20;;;;;;;14.52;2.75;;;;;;;16.68;52.32;102182.59;5022348;27;97907;-66
2022/10/11 08:34:46;;;;;;;15.27;3.75;;;;;;;16.85;51.94;102194.44;5020734;27;97630;-65
2022/10/11 08:37:13;;;;;;;15.82;3.13;;;;;;;17.07;51.38;102190.84;5025477;27;97943;-65
2022/10/11 08:39:39;;;;;;;15.40;3.60;;;;;;;17.12;50.25;102196.91;5025619;27;97270;-66
2022/10/11 08:42:14;;;;;;;18.60;3.50;;;;;;;16.96;50.88;102198.41;5026011;27;98476;-65
2022/10/11 08:44:46;;;;;;;10.98;2.50;;;;;;;16.47;52.45;102193.19;5021312;27;97137;-65
2022/10/11 08:47:20;;;;;;;11.75;2.80;;;;;;;16.49;52.09;102199.31;5020868;27;98505;-69
2022/10/11 08:49:49;;;;;;;14.35;2.47;;;;;;;16.85;51.28;102197.97;5021410;28;99903;-67
2022/10/11 08:52:21;;;;;;;14.20;2.83;;;;;;;17.17;50.61;102203.84;5023969;28;97908;-66
2022/10/11 08:54:53;;;;;;;15.10;3.45;;;;;;;17.23;50.01;102201.81;5020779;27;98098;-66
2022/10/11 08:57:22;;;;;;;11.20;2.55;;;;;;;17.48;49.75;102213.22;5019161;27;98725;-67
2022/10/11 08:59:53;;;;;;;17.45;2.90;;;;;;;17.51;49.18;102204.22;5012949;27;101664;-66
2022/10/11 09:02:29;;;;;;;15.40;2.67;;;;;;;17.61;48.63;102213.63;5012601;27;99303;-67
2022/10/11 09:05:00;;;;;;;16.83;2.78;;;;;;;17.44;48.82;102216.97;5014676;27;97034;-66
2022/10/11 09:07:38;;;;;;;18.42;3.58;;;;;;;17.63;48.14;102211.75;5014877;27;98692;-67
2022/10/11 09:10:30;;;;;;;11.43;2.50;;;;;;;17.78;48.22;102215.59;5022718;27;102482;-67
2022/10/11 09:13:11;;;;;;;15.82;2.55;;;;;;;17.91;47.75;102212.34;5024386;27;98846;-67
2022/10/11 09:15:45;;;;;;;15.07;2.22;;;;;;;18.12;47.43;102217.66;5025203;27;97765;-68
2022/10/11 09:18:33;;;;;;;19.13;2.70;;;;;;;18.60;46.40;102212.84;5022855;27;96852;-65
2022/10/11 09:21:12;;;;;;;13.32;1.92;;;;;;;18.54;46.41;102212.22;5026511;27;98967;-65
2022/10/11 09:23:54;;;;;;;15.35;2.35;;;;;;;18.57;46.19;102212.13;5025663;27;99302;-67
2022/10/11 09:26:27;;;;;;;15.52;2.85;;;;;;;18.12;47.30;102218.53;5024945;27;96836;-66
2022/10/11 09:29:01;;;;;;;20.80;3.10;;;;;;;18.26;47.00;102210.78;5027037;27;98059;-68
2022/10/11 09:31:28;;;;;;;14.68;2.45;;;;;;;18.12;47.37;102209.66;5026839;27;99382;-67
2022/10/11 09:33:55;;;;;;;16.83;2.75;;;;;;;18.51;46.29;102218.56;5025564;27;101477;-67
2022/10/11 09:36:34;;;;;;;13.27;2.00;;;;;;;18.74;45.61;102214.88;5021601;27;97112;-68
2022/10/11 09:39:07;;;;;;;17.02;2.55;;;;;;;18.30;46.08;102216.88;5026270;27;97231;-66
2022/10/11 09:41:41;;;;;;;16.65;3.17;;;;;;;18.53;45.74;102222.06;5024870;27;99554;-66
2022/10/11 09:44:14;;;;;;;9.10;2.15;;;;;;;18.33;45.98;102219.41;5021100;27;99078;-67
2022/10/11 09:46:42;;;;;;;12.52;2.30;;;;;;;18.33;46.26;102214.94;5009800;27;96936;-66
2022/10/11 09:49:14;;;;;;;14.52;2.97;;;;;;;18.46;45.93;102217.91;5011982;27;97294;-66
2022/10/11 09:51:46;;;;;;;17.77;3.13;;;;;;;18.65;44.79;102212.63;5013722;28;99309;-66
2022/10/11 09:54:13;;;;;;;13.95;2.13;;;;;;;18.81;44.70;102210.13;5013569;27;99113;-66
2022/10/11 09:56:42;;;;;;;13.15;2.28;;;;;;;19.08;44.29;102214.19;5011770;27;96834;-67
2022/10/11 09:59:21;;;;;;;20.02;2.20;;;;;;;19.10;44.25;102206.91;5011255;28;98550;-69
2022/10/11 10:01:47;;;;;;;16.92;2.58;;;;;;;19.18;43.16;102215.47;5011509;28;101201;-66
2022/10/11 10:04:17;;;;;;;16.63;2.65;;;;;;;19.42;42.48;102208.06;5008485;27;99434;-67
2022/10/11 10:06:45;;;;;;;14.48;2.63;;;;;;;19.64;42.12;102216.78;5020470;28;98712;-69
2022/10/11 10:09:25;;;;;;;13.57;2.50;;;;;;;19.24;42.78;102211.59;5013588;27;97221;-66
2022/10/11 10:11:53;;;;;;;11.05;2.05;;;;;;;19.13;43.14;102222.84;5021290;27;99025;-67
2022/10/11 10:14:23;;;;;;;12.75;2.35;;;;;;;19.24;42.14;102223.19;5011452;27;99361;-67
2022/10/11 10:16:59;;;;;;;11.35;2.13;;;;;;;19.20;41.95;102223.44;5017538;28;98020;-66
2022/10/11 10:19:25;;;;;;;19.97;2.90;;;;;;;19.30;41.95;102217.53;5014040;27;99290;-66
2022/10/11 10:21:55;;;;;;;9.50;1.90;;;;;;;18.71;43.40;102226.59;5013945;28;99184;-66
2022/10/11 10:24:34;;;;;;;19.20;2.85;;;;;;;18.94;43.27;102230.03;5024922;28;99195;-66
2022/10/11 10:27:19;;;;;;;17.23;2.28;;;;;;;19.40;42.31;102226.88;5020766;27;96806;-68
2022/10/11 10:29:59;;;;;;;18.10;1.92;;;;;;;19.56;42.34;102227.00;5022593;27;97193;-67
2022/10/11 10:32:30;;;;;;;12.15;2.63;;;;;;;19.76;41.45;102224.19;5020363;28;97862;-67
2022/10/11 10:35:06;;;;;;;16.10;2.20;;;;;;;19.49;41.19;102230.97;5021769;28;99570;-66
2022/10/11 10:37:41;;;;;;;13.63;2.22;;;;;;;19.02;42.01;102225.19;5024140;27;97086;-67
2022/10/11 10:40:10;;;;;;;14.63;1.70;;;;;;;18.43;42.59;102241.28;5024306;27;97662;-66
2022/10/11 10:42:37;;;;;;;20.05;2.42;;;;;;;18.24;43.28;102239.44;5022537;27;98962;-66
2022/10/11 10:45:08;;;;;;;12.38;2.22;;;;;;;18.35;42.19;102236.28;5024622;27;98770;-66
2022/10/11 10:47:54;;;;;;;11.10;2.33;;;;;;;18.86;41.76;102233.06;5025121;28;97053;-67
2022/10/11 10:50:26;;;;;;;9.00;2.05;;;;;;;19.31;41.17;102231.81;5024962;28;97427;-67
2022/10/11 10:53:06;;;;;;;15.73;2.30;;;;;;;19.63;40.78;102240.97;5025453;28;98922;-66
2022/10/11 10:55:37;;;;;;;14.45;1.90;;;;;;;19.34;40.62;102229.88;5018580;28;97562;-67
2022/10/11 10:58:22;;;;;;;10.93;1.65;;;;;;;19.14;41.21;102240.69;5023920;27;97574;-67
2022/10/11 11:00:51;;;;;;;15.68;2.75;;;;;;;19.15;41.48;102242.41;5024414;27;97278;-66
2022/10/11 11:03:23;;;;;;;8.48;1.67;;;;;;;19.08;41.30;102231.13;5017861;27;99047;-66
2022/10/11 11:06:00;;;;;;;10.00;2.08;;;;;;;19.03;40.90;102238.50;5022211;27;99002;-67
2022/10/11 11:08:44;;;;;;;17.02;2.67;;;;;;;19.39;40.35;102232.31;5020316;27;96842;-66
2022/10/11 11:11:32;;;;;;;15.15;1.90;;;;;;;19.56;40.28;102227.00;5021127;28;96995;-67
2022/10/11 11:14:07;;;;;;;20.40;2.38;;;;;;;18.91;40.90;102230.16;5019793;27;98981;-65
2022/10/11 11:16:42;;;;;;;13.63;2.13;;;;;;;19.01;40.73;102234.16;5021193;28;99108;-67
2022/10/11 11:19:23;;;;;;;12.73;2.00;;;;;;;18.95;40.73;102229.09;5018505;27;97512;-66
2022/10/11 11:21:57;;;;;;;22.40;2.60;;;;;;;18.83;40.94;102235.03;5015646;27;96788;-67
2022/10/11 11:24:37;;;;;;;10.82;1.90;;;;;;;18.81;41.33;102229.75;5018703;28;98342;-66
2022/10/11 11:27:26;;;;;;;16.63;1.90;;;;;;;18.92;41.22;102227.41;5021623;28;101287;-66
2022/10/11 11:29:59;;;;;;;10.40;1.70;;;;;;;19.08;40.58;102224.91;5024805;28;96793;-68